Time;durP1;ratioP1;P1;durP2;ratioP2;P2;SDS_P1;SDS_P2;PMS_P1;PMS_P2;Temp;Humidity;BMP_temperature;BMP_pressure;BME280_temperature;BME280_humidity;BME280_pressure;Samples;Min_cycle;Max_cycle;Signal;HPM_P1;HPM_P2
2022/12/30 00:00:51;;;;;;;6.15;4.95;;;17.50;53.90;;;;;;5066515;28;45356;-79
2022/12/30 00:03:18;;;;;;;5.85;5.00;;;17.50;53.90;;;;;;5066398;28;45176;-80
2022/12/30 00:05:46;;;;;;;5.70;4.50;;;17.50;53.90;;;;;;5066249;28;46405;-79
2022/12/30 00:10:53;;;;;;;6.20;5.13;;;17.50;53.90;;;;;;5065906;27;45318;-79
2022/12/30 00:35:17;;;;;;;5.95;4.90;;;17.50;53.90;;;;;;5062935;28;45420;-79
2022/12/30 00:37:46;;;;;;;6.55;5.60;;;17.50;54.50;;;;;;5065247;28;46479;-79
2022/12/30 00:40:12;;;;;;;5.90;5.07;;;17.50;54.00;;;;;;5065286;28;45175;-80
2022/12/30 00:45:24;;;;;;;7.45;5.53;;;17.50;53.90;;;;;;5062900;28;45285;-80
2022/12/30 00:47:51;;;;;;;7.22;5.63;;;17.50;54.00;;;;;;5064242;27;45458;-80
2022/12/30 00:58:32;;;;;;;6.95;5.72;;;17.40;53.90;;;;;;5062311;28;45326;-79
2022/12/30 01:00:59;;;;;;;6.70;5.63;;;17.40;53.90;;;;;;5064882;28;45181;-80
2022/12/30 01:03:25;;;;;;;6.63;5.93;;;17.40;54.00;;;;;;5064186;28;45256;-80
2022/12/30 01:05:52;;;;;;;6.45;5.43;;;17.40;53.90;;;;;;5065095;28;45166;-80
2022/12/30 01:08:21;;;;;;;7.22;6.18;;;17.40;54.00;;;;;;5064721;28;46701;-79
2022/12/30 01:10:47;;;;;;;6.95;5.68;;;17.40;53.90;;;;;;5064786;28;45247;-79
2022/12/30 01:13:14;;;;;;;6.78;6.07;;;17.40;54.00;;;;;;5064969;28;45189;-78
2022/12/30 01:15:41;;;;;;;7.38;6.05;;;17.40;54.00;;;;;;5065211;28;45291;-79
2022/12/30 01:18:08;;;;;;;6.75;5.70;;;17.40;54.00;;;;;;5064800;27;45476;-79
2022/12/30 01:20:36;;;;;;;7.75;5.85;;;17.40;54.00;;;;;;5064745;27;45392;-79
2022/12/30 01:23:03;;;;;;;5.90;5.25;;;17.40;54.60;;;;;;5064700;27;45320;-79
2022/12/30 01:25:31;;;;;;;6.40;5.75;;;17.40;54.00;;;;;;5064990;28;45149;-79
2022/12/30 01:27:58;;;;;;;6.82;5.72;;;17.40;54.00;;;;;;5064293;28;45471;-79
2022/12/30 01:30:25;;;;;;;6.88;5.85;;;17.40;54.00;;;;;;5064649;28;45350;-79
2022/12/30 01:32:51;;;;;;;6.72;5.63;;;17.40;54.00;;;;;;5064836;28;45328;-79
2022/12/30 01:35:18;;;;;;;7.78;5.93;;;17.40;54.00;;;;;;5064648;28;45406;-80
2022/12/30 01:37:45;;;;;;;7.00;5.45;;;17.30;54.00;;;;;;5064669;28;47745;-79
2022/12/30 01:40:12;;;;;;;7.10;5.90;;;17.30;54.00;;;;;;5064540;28;45172;-80
2022/12/30 01:42:41;;;;;;;7.38;5.50;;;17.30;54.00;;;;;;5064686;28;45346;-79
2022/12/30 01:45:15;;;;;;;6.03;5.13;;;17.30;54.00;;;;;;5064840;28;45274;-79
2022/12/30 01:47:43;;;;;;;7.50;5.63;;;17.30;54.00;;;;;;5064379;27;45347;-79
2022/12/30 01:50:23;;;;;;;6.30;5.13;;;17.30;54.00;;;;;;5063626;28;45189;-79
2022/12/30 01:52:52;;;;;;;7.10;5.07;;;17.30;54.00;;;;;;5063977;28;45273;-78
2022/12/30 01:55:20;;;;;;;5.47;4.90;;;17.30;54.00;;;;;;5063699;27;45458;-79
2022/12/30 01:57:49;;;;;;;5.75;4.82;;;17.30;54.00;;;;;;5064126;27;46485;-79
2022/12/30 02:00:16;;;;;;;6.90;5.80;;;17.30;54.00;;;;;;5064152;27;45443;-79
2022/12/30 02:02:43;;;;;;;5.32;4.82;;;17.30;54.00;;;;;;5063100;28;45272;-79
2022/12/30 02:05:10;;;;;;;5.95;4.85;;;17.20;53.90;;;;;;5064596;28;45457;-79
2022/12/30 02:07:39;;;;;;;6.35;5.20;;;17.20;53.90;;;;;;5064173;28;47626;-79
2022/12/30 02:10:07;;;;;;;5.38;4.82;;;17.20;54.00;;;;;;5063981;27;45308;-79
2022/12/30 02:12:33;;;;;;;5.32;4.70;;;17.20;53.90;;;;;;5064424;28;45304;-79
2022/12/30 02:15:01;;;;;;;5.68;4.53;;;17.20;53.90;;;;;;5064211;28;45230;-79
2022/12/30 02:17:32;;;;;;;5.18;4.53;;;17.20;53.90;;;;;;5063870;28;45170;-79
2022/12/30 02:20:38;;;;;;;4.60;4.10;;;17.20;54.50;;;;;;5064109;28;45289;-79
2022/12/30 02:23:29;;;;;;;5.15;4.07;;;17.20;53.90;;;;;;5062851;27;45319;-79
2022/12/30 02:26:05;;;;;;;5.32;3.78;;;17.20;53.90;;;;;;5064758;28;45367;-79
2022/12/30 02:28:47;;;;;;;4.35;3.92;;;17.20;53.90;;;;;;5064020;28;45477;-79
2022/12/30 02:31:29;;;;;;;4.57;4.00;;;17.20;53.90;;;;;;5064022;27;45153;-80
2022/12/30 02:34:01;;;;;;;4.00;3.60;;;17.10;53.80;;;;;;5063929;27;45158;-79
2022/12/30 02:36:30;;;;;;;4.70;3.83;;;17.10;53.80;;;;;;5063972;28;45344;-79
2022/12/30 02:39:01;;;;;;;4.03;3.35;;;17.10;53.80;;;;;;5063993;28;46598;-79
2022/12/30 02:47:03;;;;;;;3.33;2.97;;;17.10;53.80;;;;;;5061724;28;45202;-79
2022/12/30 02:49:30;;;;;;;3.92;3.47;;;17.10;53.80;;;;;;5063637;28;45525;-79
2022/12/30 02:52:14;;;;;;;3.70;3.40;;;17.00;53.70;;;;;;5063570;28;45245;-79
2022/12/30 02:54:41;;;;;;;3.80;3.30;;;17.00;53.80;;;;;;5063630;28;45305;-79
2022/12/30 02:57:25;;;;;;;4.03;3.17;;;17.00;54.30;;;;;;5063783;27;45321;-79
2022/12/30 03:05:43;;;;;;;3.63;2.90;;;17.00;53.80;;;;;;5063812;28;45229;-79
2022/12/30 03:08:16;;;;;;;3.30;3.00;;;17.00;53.70;;;;;;5063156;28;45311;-79
2022/12/30 03:13:31;;;;;;;3.80;2.95;;;17.00;53.80;;;;;;5064232;28;45328;-79
2022/12/30 03:16:06;;;;;;;3.05;2.75;;;16.90;53.80;;;;;;5065877;27;45235;-79
2022/12/30 03:18:34;;;;;;;3.10;2.80;;;16.90;53.80;;;;;;5066043;28;45403;-79
2022/12/30 03:21:02;;;;;;;3.05;2.67;;;16.90;53.70;;;;;;5065689;27;45528;-79
2022/12/30 03:28:56;;;;;;;2.25;1.95;;;16.90;53.80;;;;;;5063007;28;45361;-80
2022/12/30 03:31:23;;;;;;;2.50;2.22;;;16.90;53.80;;;;;;5065790;28;45659;-79
2022/12/30 03:33:51;;;;;;;2.65;2.42;;;16.90;53.80;;;;;;5065868;28;45302;-79
2022/12/30 03:36:20;;;;;;;3.22;2.70;;;16.90;53.80;;;;;;5066296;28;45278;-79
2022/12/30 03:38:51;;;;;;;2.35;2.10;;;16.90;53.80;;;;;;5066197;27;45356;-79
2022/12/30 03:41:18;;;;;;;2.50;2.30;;;16.90;53.80;;;;;;5065905;28;46670;-78
2022/12/30 03:43:45;;;;;;;2.92;2.05;;;16.90;53.80;;;;;;5065898;27;45244;-79
2022/12/30 03:46:12;;;;;;;2.40;2.20;;;16.90;53.80;;;;;;5066069;28;45385;-79
2022/12/30 03:48:39;;;;;;;2.55;2.28;;;16.90;54.40;;;;;;5066222;28;45461;-79
2022/12/30 03:51:07;;;;;;;2.63;2.03;;;16.90;53.80;;;;;;5065858;28;45533;-79
2022/12/30 03:53:34;;;;;;;1.90;1.80;;;16.90;53.80;;;;;;5065790;28;45247;-79
2022/12/30 03:56:01;;;;;;;2.80;2.00;;;16.90;53.80;;;;;;5065840;27;45236;-79
2022/12/30 03:58:28;;;;;;;3.03;2.20;;;16.90;53.80;;;;;;5065983;28;45280;-79
2022/12/30 04:00:54;;;;;;;2.35;1.73;;;16.90;53.70;;;;;;5065750;27;46442;-79
2022/12/30 04:03:21;;;;;;;2.97;2.10;;;16.90;53.80;;;;;;5065680;28;45232;-78
2022/12/30 04:05:52;;;;;;;2.00;1.80;;;16.90;53.80;;;;;;5065855;27;45204;-79
2022/12/30 04:08:21;;;;;;;1.88;1.73;;;16.90;53.80;;;;;;5065952;28;45355;-78
2022/12/30 04:10:48;;;;;;;1.73;1.63;;;16.80;53.70;;;;;;5065578;28;45479;-79
2022/12/30 04:13:15;;;;;;;2.00;1.80;;;16.90;53.70;;;;;;5065601;28;45157;-79
2022/12/30 04:15:41;;;;;;;1.95;1.77;;;16.90;53.80;;;;;;5065046;28;45261;-79
2022/12/30 04:18:08;;;;;;;1.98;1.77;;;16.90;53.80;;;;;;5065762;28;45413;-79
2022/12/30 04:20:35;;;;;;;2.55;1.95;;;16.90;53.80;;;;;;5065540;28;46677;-79
2022/12/30 04:23:02;;;;;;;2.10;1.60;;;16.90;53.70;;;;;;5065392;28;45187;-79
2022/12/30 04:25:30;;;;;;;1.88;1.70;;;16.90;53.70;;;;;;5064865;28;45187;-79
2022/12/30 04:27:57;;;;;;;1.65;1.55;;;16.80;53.60;;;;;;5065466;28;45449;-79
2022/12/30 04:30:24;;;;;;;1.67;1.58;;;16.80;53.70;;;;;;5065406;28;46331;-79
2022/12/30 04:32:50;;;;;;;1.70;1.58;;;16.80;53.70;;;;;;5065297;28;45336;-79
2022/12/30 04:35:17;;;;;;;1.60;1.50;;;16.80;53.70;;;;;;5065365;28;45141;-79
2022/12/30 04:37:44;;;;;;;2.10;1.60;;;16.80;53.70;;;;;;5065570;27;45488;-79
2022/12/30 04:40:11;;;;;;;1.50;1.40;;;16.80;53.70;;;;;;5065129;28;46730;-79
2022/12/30 04:42:39;;;;;;;1.60;1.50;;;16.80;53.60;;;;;;5065164;28;45327;-79
2022/12/30 04:45:07;;;;;;;1.63;1.52;;;16.80;53.70;;;;;;5065398;28;45212;-78
2022/12/30 04:47:34;;;;;;;1.73;1.45;;;16.80;53.60;;;;;;5065672;28;45169;-79
2022/12/30 04:50:00;;;;;;;1.75;1.33;;;16.80;53.60;;;;;;5064936;28;45244;-78
2022/12/30 04:52:27;;;;;;;1.55;1.27;;;16.80;53.60;;;;;;5064995;28;45345;-79
2022/12/30 04:54:54;;;;;;;1.30;1.20;;;16.80;53.60;;;;;;5065143;28;45301;-79
2022/12/30 04:57:21;;;;;;;1.73;1.20;;;16.80;53.60;;;;;;5065167;28;45497;-77
2022/12/30 04:59:49;;;;;;;1.85;1.40;;;16.80;53.60;;;;;;5064142;28;46722;-79
2022/12/30 05:02:16;;;;;;;2.30;1.20;;;16.80;53.60;;;;;;5064893;28;45332;-79
2022/12/30 05:04:43;;;;;;;2.63;1.00;;;16.70;53.60;;;;;;5065160;28;45378;-79
2022/12/30 05:07:09;;;;;;;1.38;1.27;;;16.70;53.60;;;;;;5065272;28;45476;-79
2022/12/30 05:09:36;;;;;;;2.15;1.30;;;16.70;53.60;;;;;;5064954;28;45581;-79
2022/12/30 05:12:03;;;;;;;1.23;1.15;;;16.70;53.60;;;;;;5064881;28;45423;-79
2022/12/30 05:14:30;;;;;;;1.25;1.13;;;16.70;53.60;;;;;;5064880;28;45140;-79
2022/12/30 05:16:58;;;;;;;1.23;1.13;;;16.70;53.60;;;;;;5064968;28;45358;-79
2022/12/30 05:19:25;;;;;;;1.58;1.30;;;16.70;53.60;;;;;;5064675;27;45744;-78
2022/12/30 05:21:52;;;;;;;1.20;1.10;;;16.70;53.60;;;;;;5064789;28;45177;-79
2022/12/30 05:27:03;;;;;;;1.00;1.00;;;16.70;53.60;;;;;;5063291;28;45483;-79
2022/12/30 05:29:30;;;;;;;1.23;1.13;;;16.70;53.60;;;;;;5064568;28;46385;-79
2022/12/30 05:31:58;;;;;;;1.58;1.15;;;16.60;53.60;;;;;;5064535;28;45289;-79
2022/12/30 05:34:25;;;;;;;1.20;1.10;;;16.60;53.60;;;;;;5064632;28;45277;-79
2022/12/30 05:36:51;;;;;;;1.10;1.00;;;16.60;53.50;;;;;;5063251;28;45222;-79
2022/12/30 05:39:18;;;;;;;1.23;1.13;;;16.60;53.60;;;;;;5064665;28;45442;-79
2022/12/30 05:41:45;;;;;;;1.08;0.95;;;16.60;53.60;;;;;;5064455;28;45190;-78
2022/12/30 05:44:12;;;;;;;0.90;0.90;;;16.60;53.50;;;;;;5064628;27;45272;-78
2022/12/30 05:46:39;;;;;;;1.20;1.10;;;16.60;53.50;;;;;;5064012;27;45382;-79
2022/12/30 05:49:07;;;;;;;1.00;0.80;;;16.60;53.50;;;;;;5064193;27;45412;-79
2022/12/30 05:51:34;;;;;;;1.20;1.10;;;16.60;53.50;;;;;;5064332;28;45181;-78
2022/12/30 05:54:00;;;;;;;0.98;0.98;;;16.60;53.60;;;;;;5064527;28;45182;-79
2022/12/30 05:56:27;;;;;;;1.42;0.77;;;16.60;53.60;;;;;;5064747;28;45373;-78
2022/12/30 05:58:54;;;;;;;1.00;0.90;;;16.60;53.60;;;;;;5064392;27;45617;-79
2022/12/30 06:01:21;;;;;;;0.90;0.90;;;16.60;53.60;;;;;;5064109;28;45321;-78
2022/12/30 06:03:48;;;;;;;1.63;1.00;;;16.60;53.60;;;;;;5064467;28;45251;-78
2022/12/30 06:06:16;;;;;;;0.90;0.90;;;16.50;53.50;;;;;;5064583;28;45434;-79
2022/12/30 06:08:43;;;;;;;1.48;0.90;;;16.50;53.50;;;;;;5064409;28;45538;-79
2022/12/30 06:11:09;;;;;;;1.05;0.95;;;16.50;53.50;;;;;;5064284;28;45216;-79
2022/12/30 06:13:36;;;;;;;1.00;0.90;;;16.50;53.50;;;;;;5064414;28;45212;-79
2022/12/30 06:16:03;;;;;;;0.82;0.82;;;16.50;53.50;;;;;;5065495;28;45204;-79
2022/12/30 06:18:30;;;;;;;1.42;0.90;;;16.50;53.50;;;;;;5064036;28;47588;-78
2022/12/30 06:20:57;;;;;;;0.80;0.80;;;16.50;53.50;;;;;;5064133;28;45214;-79
2022/12/30 06:23:25;;;;;;;1.10;1.00;;;16.50;53.50;;;;;;5064243;28;45336;-79
2022/12/30 06:25:53;;;;;;;0.80;0.80;;;16.50;53.50;;;;;;5064320;28;45320;-79
2022/12/30 06:28:20;;;;;;;0.70;0.70;;;16.50;53.50;;;;;;5063166;27;45241;-77
2022/12/30 06:30:47;;;;;;;0.77;0.77;;;16.50;53.50;;;;;;5063424;28;45182;-79
2022/12/30 06:33:17;;;;;;;1.08;0.88;;;16.40;53.50;;;;;;5064080;28;45251;-79
2022/12/30 06:35:44;;;;;;;0.60;0.60;;;16.40;53.50;;;;;;5064302;28;45205;-79
2022/12/30 06:38:11;;;;;;;1.67;0.82;;;16.40;53.50;;;;;;5064579;28;46356;-79
2022/12/30 06:40:39;;;;;;;0.82;0.82;;;16.40;53.40;;;;;;5064963;28;45428;-79
2022/12/30 06:43:06;;;;;;;0.90;0.80;;;16.40;53.40;;;;;;5065998;28;45308;-80
2022/12/30 06:45:34;;;;;;;0.82;0.70;;;16.40;53.50;;;;;;5064350;28;45483;-79
2022/12/30 06:48:00;;;;;;;0.98;0.77;;;16.40;53.50;;;;;;5064283;28;46745;-79
2022/12/30 06:50:27;;;;;;;0.60;0.60;;;16.30;53.40;;;;;;5066497;27;45248;-79
2022/12/30 06:52:54;;;;;;;0.93;0.75;;;16.40;53.40;;;;;;5066582;27;45363;-79
2022/12/30 06:55:21;;;;;;;0.73;0.65;;;16.30;53.40;;;;;;5066952;28;45296;-79
2022/12/30 06:57:50;;;;;;;1.15;0.70;;;16.30;53.40;;;;;;5066498;28;45644;-79
2022/12/30 07:00:17;;;;;;;0.93;0.70;;;16.30;53.50;;;;;;5066704;28;45194;-79
2022/12/30 07:02:44;;;;;;;0.88;0.88;;;16.30;53.50;;;;;;5066745;28;45334;-79
2022/12/30 07:05:10;;;;;;;0.65;0.65;;;16.30;53.40;;;;;;5066871;28;45357;-79
2022/12/30 07:07:37;;;;;;;0.95;0.60;;;16.30;53.40;;;;;;5067509;28;45537;-79
2022/12/30 07:10:05;;;;;;;0.77;0.77;;;16.30;53.40;;;;;;5066638;28;45213;-79
2022/12/30 07:12:31;;;;;;;0.85;0.65;;;16.30;53.40;;;;;;5066675;28;45291;-79
2022/12/30 07:15:00;;;;;;;0.60;0.60;;;16.30;53.40;;;;;;5066075;28;45389;-79
2022/12/30 07:17:26;;;;;;;0.52;0.52;;;16.30;53.40;;;;;;5066271;28;45458;-79
2022/12/30 07:19:53;;;;;;;0.50;0.50;;;16.30;53.40;;;;;;5066548;27;45235;-79
2022/12/30 07:22:20;;;;;;;1.38;0.60;;;16.20;53.30;;;;;;5066532;28;45313;-79
2022/12/30 07:24:47;;;;;;;0.60;0.60;;;16.20;53.30;;;;;;5066863;28;45645;-79
2022/12/30 07:27:14;;;;;;;0.47;0.43;;;16.30;53.40;;;;;;5066005;28;45238;-79
2022/12/30 07:29:41;;;;;;;0.63;0.60;;;16.20;53.30;;;;;;5066216;28;45317;-79
2022/12/30 07:32:09;;;;;;;0.57;0.50;;;16.20;53.30;;;;;;5066567;28;45239;-79
2022/12/30 07:34:37;;;;;;;0.90;0.70;;;16.20;53.30;;;;;;5066651;28;45187;-79
2022/12/30 07:37:03;;;;;;;0.95;0.77;;;16.20;53.30;;;;;;5066017;28;45570;-79
2022/12/30 07:39:30;;;;;;;0.50;0.50;;;16.20;53.30;;;;;;5066295;28;45247;-79
2022/12/30 07:41:57;;;;;;;0.85;0.68;;;16.20;53.30;;;;;;5066311;28;45333;-79
2022/12/30 07:44:24;;;;;;;1.00;0.50;;;16.20;53.30;;;;;;5066469;28;45277;-79
2022/12/30 07:46:51;;;;;;;0.60;0.60;;;16.20;53.30;;;;;;5065892;28;46326;-79
2022/12/30 07:49:19;;;;;;;0.60;0.60;;;16.20;53.30;;;;;;5066057;28;45188;-79
2022/12/30 07:51:46;;;;;;;0.47;0.47;;;16.20;53.30;;;;;;5066004;28;45406;-79
2022/12/30 07:54:12;;;;;;;0.98;0.60;;;16.20;53.30;;;;;;5066336;28;45220;-79
2022/12/30 07:56:39;;;;;;;1.38;0.70;;;16.20;53.30;;;;;;5065549;28;45232;-77
2022/12/30 07:59:06;;;;;;;0.55;0.47;;;16.20;53.30;;;;;;5065135;28;45228;-79
2022/12/30 08:01:33;;;;;;;0.50;0.50;;;16.20;53.30;;;;;;5064992;28;45297;-79
2022/12/30 08:04:00;;;;;;;0.90;0.60;;;16.20;53.30;;;;;;5066136;28;45618;-79
2022/12/30 08:06:28;;;;;;;0.70;0.70;;;16.20;53.20;;;;;;5065670;28;45414;-79
2022/12/30 08:08:55;;;;;;;0.52;0.52;;;16.20;53.30;;;;;;5065941;28;45201;-79
2022/12/30 08:11:22;;;;;;;0.40;0.40;;;16.20;53.30;;;;;;5066091;28;45174;-79
2022/12/30 08:13:49;;;;;;;0.40;0.40;;;16.20;53.20;;;;;;5065996;28;45181;-79
2022/12/30 08:16:16;;;;;;;0.40;0.40;;;16.10;53.20;;;;;;5065654;28;45597;-80
2022/12/30 08:18:43;;;;;;;0.50;0.50;;;16.10;53.20;;;;;;5065466;27;45292;-79
2022/12/30 08:21:11;;;;;;;0.55;0.55;;;16.20;53.20;;;;;;5066049;28;45185;-79
2022/12/30 08:23:39;;;;;;;0.40;0.40;;;16.20;53.80;;;;;;5065913;27;45244;-79
2022/12/30 08:26:06;;;;;;;0.50;0.50;;;16.20;53.20;;;;;;5065210;28;45509;-79
2022/12/30 08:28:33;;;;;;;0.60;0.50;;;16.20;53.30;;;;;;5065457;28;45244;-79
2022/12/30 08:31:00;;;;;;;0.50;0.50;;;16.20;53.20;;;;;;5065639;28;45117;-79
2022/12/30 08:33:27;;;;;;;0.45;0.45;;;16.30;53.10;;;;;;5065861;28;45466;-79
2022/12/30 08:36:01;;;;;;;0.70;0.40;;;16.30;52.90;;;;;;5065287;28;46742;-79
2022/12/30 08:38:27;;;;;;;0.65;0.65;;;16.30;52.80;;;;;;5065759;28;45415;-79
2022/12/30 08:41:03;;;;;;;0.55;0.52;;;16.40;52.70;;;;;;5066194;28;45182;-79
2022/12/30 08:43:30;;;;;;;0.50;0.50;;;16.40;52.60;;;;;;5066026;28;45453;-79
2022/12/30 08:46:00;;;;;;;0.85;0.57;;;16.50;52.50;;;;;;5066036;28;45336;-78
2022/12/30 08:48:28;;;;;;;0.68;0.60;;;16.50;52.40;;;;;;5069268;28;45125;-79
2022/12/30 08:50:56;;;;;;;1.25;0.63;;;16.50;52.30;;;;;;5070568;27;45326;-79
2022/12/30 08:53:23;;;;;;;0.40;0.40;;;16.50;52.20;;;;;;5066728;28;45276;-79
2022/12/30 08:56:00;;;;;;;1.02;0.60;;;16.50;52.30;;;;;;5066853;27;45201;-79
2022/12/30 08:58:27;;;;;;;0.63;0.47;;;16.50;52.20;;;;;;5065774;28;45196;-79
2022/12/30 09:00:54;;;;;;;0.60;0.60;;;16.50;52.30;;;;;;5065716;28;45154;-79
2022/12/30 09:03:21;;;;;;;0.50;0.50;;;16.50;52.20;;;;;;5065897;28;45269;-79
2022/12/30 09:05:51;;;;;;;0.50;0.50;;;16.50;52.30;;;;;;5065249;28;46466;-79
2022/12/30 09:08:18;;;;;;;0.50;0.50;;;16.50;52.40;;;;;;5065247;28;45288;-79
2022/12/30 09:10:45;;;;;;;0.75;0.40;;;16.50;52.30;;;;;;5065910;27;45370;-79
2022/12/30 09:13:14;;;;;;;0.50;0.50;;;16.40;52.30;;;;;;5065211;28;45290;-79
2022/12/30 09:15:40;;;;;;;1.40;0.52;;;16.40;52.40;;;;;;5065309;28;45212;-79
2022/12/30 09:18:07;;;;;;;0.60;0.60;;;16.40;52.40;;;;;;5065003;28;45221;-79
2022/12/30 09:20:34;;;;;;;1.23;0.60;;;16.40;52.40;;;;;;5065138;28;45209;-79
2022/12/30 09:23:01;;;;;;;0.52;0.52;;;16.40;52.40;;;;;;5065154;28;45388;-79
2022/12/30 09:25:28;;;;;;;0.50;0.50;;;16.40;52.70;;;;;;5064820;28;46905;-79
2022/12/30 09:27:54;;;;;;;0.60;0.60;;;16.40;52.40;;;;;;5064654;28;45304;-79
2022/12/30 09:30:23;;;;;;;0.40;0.40;;;16.50;52.40;;;;;;5065499;28;45136;-79
2022/12/30 09:32:49;;;;;;;0.50;0.50;;;16.40;52.30;;;;;;5064906;27;45402;-79
2022/12/30 09:35:16;;;;;;;0.60;0.50;;;16.50;52.50;;;;;;5064050;28;45369;-79
2022/12/30 09:37:43;;;;;;;0.52;0.43;;;16.50;52.50;;;;;;5064987;28;45321;-79
2022/12/30 09:40:14;;;;;;;2.58;0.60;;;16.50;52.40;;;;;;5065078;27;45187;-79
2022/12/30 09:45:27;;;;;;;0.30;0.30;;;16.50;52.30;;;;;;5065278;28;45302;-79
2022/12/30 09:47:55;;;;;;;0.50;0.50;;;16.50;52.30;;;;;;5064723;28;45272;-79
2022/12/30 09:50:24;;;;;;;0.40;0.40;;;16.60;52.30;;;;;;5062744;28;45117;-78
2022/12/30 09:52:53;;;;;;;1.55;0.70;;;16.60;52.30;;;;;;5064923;28;45469;-78
2022/12/30 09:55:21;;;;;;;0.55;0.40;;;16.60;52.20;;;;;;5064994;27;45568;-79
2022/12/30 09:57:50;;;;;;;0.52;0.50;;;16.60;52.80;;;;;;5064954;27;45229;-79
2022/12/30 10:00:18;;;;;;;0.40;0.40;;;16.60;52.20;;;;;;5064653;27;45416;-79
2022/12/30 10:02:56;;;;;;;0.47;0.47;;;16.70;52.20;;;;;;5065010;28;45456;-79
2022/12/30 10:05:31;;;;;;;0.40;0.40;;;16.70;52.20;;;;;;5064703;27;46423;-79
2022/12/30 10:08:00;;;;;;;0.40;0.40;;;16.70;52.30;;;;;;5064894;28;45244;-79
2022/12/30 10:10:28;;;;;;;0.47;0.47;;;16.70;52.30;;;;;;5064179;28;45295;-79
2022/12/30 10:13:00;;;;;;;0.95;0.60;;;16.70;52.40;;;;;;5064799;28;45336;-78
2022/12/30 10:15:34;;;;;;;0.60;0.60;;;16.70;52.30;;;;;;5064515;28;45449;-78
2022/12/30 10:18:09;;;;;;;0.50;0.50;;;16.60;52.30;;;;;;5063916;28;45276;-78
2022/12/30 10:20:44;;;;;;;1.65;0.40;;;16.60;52.40;;;;;;5064328;28;45352;-79
2022/12/30 10:23:13;;;;;;;0.60;0.60;;;16.60;52.40;;;;;;5063414;28;45319;-79
2022/12/30 10:25:43;;;;;;;0.77;0.40;;;16.60;52.40;;;;;;5064051;28;46408;-78
2022/12/30 10:28:13;;;;;;;0.50;0.50;;;16.60;52.40;;;;;;5064133;28;45260;-78
2022/12/30 10:30:41;;;;;;;0.52;0.52;;;16.70;52.40;;;;;;5064522;27;45148;-79
2022/12/30 10:33:22;;;;;;;0.98;0.60;;;16.70;52.40;;;;;;5064308;27;45446;-79
2022/12/30 10:35:50;;;;;;;0.35;0.35;;;16.70;52.40;;;;;;5064120;28;45354;-78
2022/12/30 10:38:19;;;;;;;0.40;0.40;;;16.70;53.00;;;;;;5065809;28;45288;-75
2022/12/30 10:40:50;;;;;;;0.40;0.40;;;16.70;52.40;;;;;;5069180;28;45244;-76
2022/12/30 10:43:25;;;;;;;0.75;0.50;;;16.70;52.40;;;;;;5068122;27;45129;-75
2022/12/30 10:46:04;;;;;;;1.75;0.50;;;16.70;53.00;;;;;;5065186;27;46578;-78
2022/12/30 10:48:46;;;;;;;0.40;0.40;;;16.80;52.40;;;;;;5064061;28;45314;-79
2022/12/30 10:51:15;;;;;;;0.43;0.43;;;16.80;52.40;;;;;;5063881;28;45186;-79
2022/12/30 10:53:42;;;;;;;0.75;0.50;;;16.80;52.40;;;;;;5063821;27;45460;-78
2022/12/30 10:56:15;;;;;;;1.95;0.57;;;16.80;52.40;;;;;;5063385;28;46288;-80
2022/12/30 10:58:42;;;;;;;0.52;0.50;;;16.70;52.30;;;;;;5063520;27;45312;-78
2022/12/30 11:01:10;;;;;;;1.15;0.50;;;16.80;52.40;;;;;;5063024;28;45320;-79
2022/12/30 11:03:42;;;;;;;0.50;0.50;;;16.80;52.40;;;;;;5063416;27;45391;-78
2022/12/30 11:06:24;;;;;;;0.43;0.43;;;16.80;52.80;;;;;;5063253;28;45400;-79
2022/12/30 11:08:52;;;;;;;0.60;0.60;;;16.80;52.50;;;;;;5062493;28;45250;-78
2022/12/30 11:11:19;;;;;;;0.45;0.45;;;16.80;52.50;;;;;;5063489;28;45325;-78
2022/12/30 11:16:39;;;;;;;0.57;0.40;;;16.80;52.50;;;;;;5059838;28;45711;-78
2022/12/30 11:19:18;;;;;;;0.70;0.70;;;16.80;52.60;;;;;;5063360;28;45263;-78
2022/12/30 11:21:44;;;;;;;0.60;0.60;;;16.80;52.60;;;;;;5063115;28;45209;-78
2022/12/30 11:24:14;;;;;;;0.50;0.50;;;16.80;53.30;;;;;;5063600;28;45406;-79
2022/12/30 11:26:46;;;;;;;0.40;0.40;;;16.80;52.70;;;;;;5062246;28;46735;-78
2022/12/30 11:29:15;;;;;;;0.52;0.52;;;16.80;53.30;;;;;;5063003;28;45320;-79
2022/12/30 11:31:43;;;;;;;0.50;0.50;;;16.80;52.70;;;;;;5063352;28;45197;-78
2022/12/30 11:34:16;;;;;;;0.50;0.50;;;16.70;52.80;;;;;;5064011;28;45181;-79
2022/12/30 11:36:42;;;;;;;0.60;0.60;;;16.80;52.80;;;;;;5066036;27;46669;-79
2022/12/30 11:39:28;;;;;;;0.68;0.68;;;16.80;52.90;;;;;;5066252;28;45310;-78
2022/12/30 11:41:56;;;;;;;0.95;0.60;;;16.80;52.90;;;;;;5066787;28;45227;-79
2022/12/30 11:44:24;;;;;;;0.52;0.52;;;16.80;52.90;;;;;;5066537;28;45393;-78
2022/12/30 11:46:52;;;;;;;0.30;0.30;;;16.80;52.90;;;;;;5065970;28;47706;-79
2022/12/30 11:49:32;;;;;;;0.30;0.30;;;16.80;52.90;;;;;;5063515;28;45157;-78
2022/12/30 11:52:00;;;;;;;0.38;0.30;;;16.80;52.90;;;;;;5066173;27;45343;-79
2022/12/30 11:54:27;;;;;;;2.28;0.50;;;16.80;52.90;;;;;;5066303;28;45406;-78
2022/12/30 11:56:55;;;;;;;0.77;0.50;;;16.80;52.90;;;;;;5065856;28;45519;-78
2022/12/30 11:59:23;;;;;;;0.75;0.75;;;16.80;53.00;;;;;;5066048;28;45256;-78
2022/12/30 12:01:51;;;;;;;1.17;0.80;;;16.80;53.00;;;;;;5065867;28;45292;-78
2022/12/30 12:04:33;;;;;;;0.57;0.57;;;16.80;53.00;;;;;;5066000;28;45212;-79
2022/12/30 12:07:00;;;;;;;0.60;0.60;;;16.80;53.00;;;;;;5065786;27;46352;-78
2022/12/30 12:09:30;;;;;;;0.40;0.40;;;16.90;53.00;;;;;;5065666;28;45208;-78
2022/12/30 12:11:57;;;;;;;0.60;0.60;;;16.90;53.00;;;;;;5065732;28;45454;-78
2022/12/30 12:14:29;;;;;;;1.52;0.63;;;16.90;53.00;;;;;;5066178;28;45320;-79
2022/12/30 12:16:58;;;;;;;0.50;0.50;;;16.90;53.00;;;;;;5065391;28;45458;-78
2022/12/30 12:19:29;;;;;;;0.70;0.70;;;16.90;53.00;;;;;;5065641;27;45294;-78
2022/12/30 12:21:59;;;;;;;0.50;0.50;;;16.90;53.00;;;;;;5065636;28;45201;-78
2022/12/30 12:24:28;;;;;;;0.60;0.60;;;16.90;53.00;;;;;;5065683;27;45466;-78
2022/12/30 12:26:57;;;;;;;0.60;0.60;;;16.90;53.00;;;;;;5064569;28;46650;-79
2022/12/30 12:29:23;;;;;;;0.60;0.50;;;16.90;53.00;;;;;;5065409;28;45358;-78
2022/12/30 12:32:09;;;;;;;0.40;0.40;;;16.90;53.00;;;;;;5065516;27;45274;-79
2022/12/30 12:34:42;;;;;;;0.80;0.60;;;16.90;53.00;;;;;;5061898;27;45257;-78
2022/12/30 12:37:18;;;;;;;0.75;0.65;;;16.90;53.00;;;;;;5065350;27;46409;-79
2022/12/30 12:39:50;;;;;;;0.55;0.55;;;16.90;53.00;;;;;;5065167;28;45244;-78
2022/12/30 12:42:18;;;;;;;0.55;0.55;;;16.90;53.00;;;;;;5065669;28;45330;-78
2022/12/30 12:45:21;;;;;;;0.47;0.47;;;16.90;53.10;;;;;;5065813;28;45281;-78
2022/12/30 12:47:56;;;;;;;1.02;0.60;;;17.00;53.10;;;;;;5057842;27;46929;-78
2022/12/30 12:50:33;;;;;;;0.80;0.60;;;17.00;53.00;;;;;;5065207;28;45407;-77
2022/12/30 12:53:08;;;;;;;0.60;0.60;;;17.00;53.10;;;;;;5065815;28;45256;-78
2022/12/30 12:55:56;;;;;;;0.60;0.60;;;17.00;53.10;;;;;;5067156;28;45507;-79
2022/12/30 12:58:26;;;;;;;0.65;0.65;;;17.00;53.10;;;;;;5066824;27;45233;-79
2022/12/30 13:00:57;;;;;;;0.50;0.50;;;17.00;53.10;;;;;;5066557;27;45252;-78
2022/12/30 13:03:33;;;;;;;0.60;0.60;;;17.00;53.10;;;;;;5066201;28;45187;-78
2022/12/30 13:06:05;;;;;;;0.45;0.45;;;17.00;53.10;;;;;;5066508;28;45524;-78
2022/12/30 13:08:49;;;;;;;0.50;0.50;;;17.00;53.10;;;;;;5065914;27;46849;-78
2022/12/30 13:11:17;;;;;;;0.60;0.60;;;17.00;53.10;;;;;;5063839;28;45308;-78
2022/12/30 13:13:48;;;;;;;0.60;0.60;;;17.00;53.10;;;;;;5065808;28;45174;-78
2022/12/30 13:16:17;;;;;;;0.63;0.63;;;17.00;53.00;;;;;;5066718;27;45238;-78
2022/12/30 13:18:45;;;;;;;0.63;0.63;;;17.00;53.10;;;;;;5068362;28;45436;-78
2022/12/30 13:21:13;;;;;;;0.77;0.50;;;17.00;53.10;;;;;;5069420;27;45266;-78
2022/12/30 13:23:43;;;;;;;0.70;0.70;;;17.00;53.10;;;;;;5069927;27;44735;-78
2022/12/30 13:26:10;;;;;;;0.70;0.68;;;17.00;53.10;;;;;;5066685;28;45345;-78
2022/12/30 13:28:36;;;;;;;0.57;0.57;;;17.00;53.10;;;;;;5065689;27;46470;-79
2022/12/30 13:31:24;;;;;;;0.57;0.57;;;17.00;53.10;;;;;;5064695;28;45372;-78
2022/12/30 13:33:56;;;;;;;0.80;0.63;;;17.00;53.10;;;;;;5065045;27;45299;-78
2022/12/30 13:36:27;;;;;;;0.65;0.50;;;17.00;53.10;;;;;;5065865;28;45276;-78
2022/12/30 13:39:01;;;;;;;0.50;0.40;;;17.00;53.10;;;;;;5065104;28;47345;-79
2022/12/30 13:41:47;;;;;;;0.60;0.60;;;17.00;53.10;;;;;;5064916;27;45229;-79
2022/12/30 13:44:15;;;;;;;0.60;0.60;;;17.00;53.10;;;;;;5065042;27;45174;-79
2022/12/30 13:46:47;;;;;;;0.60;0.60;;;17.00;53.10;;;;;;5065058;28;45530;-78
2022/12/30 13:49:20;;;;;;;0.60;0.60;;;17.10;53.10;;;;;;5065194;28;46351;-79
2022/12/30 13:51:53;;;;;;;0.50;0.50;;;17.00;53.10;;;;;;5065253;27;45606;-78
2022/12/30 13:54:21;;;;;;;0.60;0.57;;;17.10;53.10;;;;;;5065106;28;45390;-79
2022/12/30 13:56:50;;;;;;;0.55;0.55;;;17.10;53.10;;;;;;5065451;28;45418;-78
2022/12/30 13:59:22;;;;;;;0.65;0.60;;;17.00;53.10;;;;;;5063526;28;45420;-78
2022/12/30 14:01:49;;;;;;;0.50;0.50;;;17.00;53.10;;;;;;5064787;27;45156;-78